sensor_id;sensor_type;location;lat;lon;timestamp;P1;durP1;ratioP1;P2;durP2;ratioP2
44046;SDS011;29713;-33.888;151.150;2023-07-24T00:01:53;9.17;;;4.03;;
44046;SDS011;29713;-33.888;151.150;2023-07-24T00:04:20;7.43;;;3.80;;
44046;SDS011;29713;-33.888;151.150;2023-07-24T00:06:48;6.30;;;3.40;;
44046;SDS011;29713;-33.888;151.150;2023-07-24T00:09:18;10.50;;;3.33;;
44046;SDS011;29713;-33.888;151.150;2023-07-24T00:11:45;8.80;;;3.17;;
44046;SDS011;29713;-33.888;151.150;2023-07-24T00:14:12;6.77;;;2.90;;
44046;SDS011;29713;-33.888;151.150;2023-07-24T00:16:41;6.50;;;3.30;;
44046;SDS011;29713;-33.888;151.150;2023-07-24T00:19:08;8.33;;;3.57;;
44046;SDS011;29713;-33.888;151.150;2023-07-24T00:21:36;12.93;;;3.37;;
44046;SDS011;29713;-33.888;151.150;2023-07-24T00:24:03;6.73;;;3.20;;
44046;SDS011;29713;-33.888;151.150;2023-07-24T00:26:30;9.53;;;3.40;;
44046;SDS011;29713;-33.888;151.150;2023-07-24T00:28:59;6.77;;;3.17;;
44046;SDS011;29713;-33.888;151.150;2023-07-24T00:31:26;6.47;;;3.30;;
44046;SDS011;29713;-33.888;151.150;2023-07-24T00:33:54;5.53;;;2.60;;
44046;SDS011;29713;-33.888;151.150;2023-07-24T00:36:21;5.23;;;2.60;;
44046;SDS011;29713;-33.888;151.150;2023-07-24T00:38:48;5.75;;;2.65;;
44046;SDS011;29713;-33.888;151.150;2023-07-24T00:41:15;5.53;;;2.23;;
44046;SDS011;29713;-33.888;151.150;2023-07-24T00:43:43;6.55;;;2.13;;
44046;SDS011;29713;-33.888;151.150;2023-07-24T00:46:11;5.50;;;2.05;;
44046;SDS011;29713;-33.888;151.150;2023-07-24T00:48:38;7.60;;;2.00;;
44046;SDS011;29713;-33.888;151.150;2023-07-24T00:51:06;5.50;;;2.10;;
44046;SDS011;29713;-33.888;151.150;2023-07-24T00:53:33;4.18;;;1.90;;
44046;SDS011;29713;-33.888;151.150;2023-07-24T00:56:01;4.50;;;1.67;;
44046;SDS011;29713;-33.888;151.150;2023-07-24T00:58:29;6.07;;;1.90;;
44046;SDS011;29713;-33.888;151.150;2023-07-24T01:00:56;6.63;;;1.95;;
44046;SDS011;29713;-33.888;151.150;2023-07-24T01:03:25;8.18;;;2.60;;
44046;SDS011;29713;-33.888;151.150;2023-07-24T01:05:58;5.65;;;1.70;;
44046;SDS011;29713;-33.888;151.150;2023-07-24T01:08:29;6.87;;;2.23;;
44046;SDS011;29713;-33.888;151.150;2023-07-24T01:10:57;3.83;;;1.73;;
44046;SDS011;29713;-33.888;151.150;2023-07-24T01:13:32;7.90;;;1.83;;
44046;SDS011;29713;-33.888;151.150;2023-07-24T01:16:08;6.83;;;1.93;;
44046;SDS011;29713;-33.888;151.150;2023-07-24T01:18:40;5.87;;;1.90;;
44046;SDS011;29713;-33.888;151.150;2023-07-24T01:21:09;8.77;;;2.27;;
44046;SDS011;29713;-33.888;151.150;2023-07-24T01:26:19;5.03;;;1.63;;
44046;SDS011;29713;-33.888;151.150;2023-07-24T01:28:49;6.53;;;2.00;;
44046;SDS011;29713;-33.888;151.150;2023-07-24T01:31:17;6.82;;;1.80;;
44046;SDS011;29713;-33.888;151.150;2023-07-24T01:33:44;5.87;;;2.10;;
44046;SDS011;29713;-33.888;151.150;2023-07-24T01:36:12;5.30;;;1.90;;
44046;SDS011;29713;-33.888;151.150;2023-07-24T01:38:40;8.00;;;2.17;;
44046;SDS011;29713;-33.888;151.150;2023-07-24T01:41:08;7.33;;;2.20;;
44046;SDS011;29713;-33.888;151.150;2023-07-24T01:43:36;5.85;;;1.98;;
44046;SDS011;29713;-33.888;151.150;2023-07-24T01:46:06;10.83;;;2.47;;
44046;SDS011;29713;-33.888;151.150;2023-07-24T01:48:34;6.17;;;2.10;;
44046;SDS011;29713;-33.888;151.150;2023-07-24T01:51:01;6.40;;;1.80;;
44046;SDS011;29713;-33.888;151.150;2023-07-24T01:53:28;5.85;;;2.03;;
44046;SDS011;29713;-33.888;151.150;2023-07-24T01:55:56;5.53;;;2.15;;
44046;SDS011;29713;-33.888;151.150;2023-07-24T01:58:24;6.10;;;1.90;;
44046;SDS011;29713;-33.888;151.150;2023-07-24T02:00:54;6.47;;;1.95;;
44046;SDS011;29713;-33.888;151.150;2023-07-24T02:03:21;3.63;;;1.45;;
44046;SDS011;29713;-33.888;151.150;2023-07-24T02:05:49;7.22;;;1.80;;
44046;SDS011;29713;-33.888;151.150;2023-07-24T02:08:17;5.45;;;1.80;;
44046;SDS011;29713;-33.888;151.150;2023-07-24T02:10:50;6.95;;;1.67;;
44046;SDS011;29713;-33.888;151.150;2023-07-24T02:13:18;4.47;;;1.83;;
44046;SDS011;29713;-33.888;151.150;2023-07-24T02:15:45;6.15;;;1.40;;
44046;SDS011;29713;-33.888;151.150;2023-07-24T02:18:12;3.92;;;1.48;;
44046;SDS011;29713;-33.888;151.150;2023-07-24T02:20:48;7.65;;;1.63;;
44046;SDS011;29713;-33.888;151.150;2023-07-24T02:23:16;5.78;;;1.70;;
44046;SDS011;29713;-33.888;151.150;2023-07-24T02:25:43;7.30;;;1.58;;
44046;SDS011;29713;-33.888;151.150;2023-07-24T02:28:10;7.25;;;1.48;;
44046;SDS011;29713;-33.888;151.150;2023-07-24T02:30:39;7.22;;;1.92;;
44046;SDS011;29713;-33.888;151.150;2023-07-24T02:33:06;6.40;;;1.60;;
44046;SDS011;29713;-33.888;151.150;2023-07-24T02:35:40;5.15;;;1.48;;
44046;SDS011;29713;-33.888;151.150;2023-07-24T02:38:08;8.95;;;1.88;;
44046;SDS011;29713;-33.888;151.150;2023-07-24T02:40:35;4.38;;;1.58;;
44046;SDS011;29713;-33.888;151.150;2023-07-24T02:43:03;3.38;;;1.60;;
44046;SDS011;29713;-33.888;151.150;2023-07-24T02:45:30;5.28;;;1.50;;
44046;SDS011;29713;-33.888;151.150;2023-07-24T02:48:01;5.38;;;1.52;;
44046;SDS011;29713;-33.888;151.150;2023-07-24T02:50:28;7.05;;;1.92;;
44046;SDS011;29713;-33.888;151.150;2023-07-24T02:52:55;3.50;;;1.30;;
44046;SDS011;29713;-33.888;151.150;2023-07-24T02:55:23;3.17;;;1.10;;
44046;SDS011;29713;-33.888;151.150;2023-07-24T02:57:50;5.75;;;1.67;;
44046;SDS011;29713;-33.888;151.150;2023-07-24T03:00:17;3.13;;;1.17;;
44046;SDS011;29713;-33.888;151.150;2023-07-24T03:02:45;6.45;;;1.40;;
44046;SDS011;29713;-33.888;151.150;2023-07-24T03:05:12;5.00;;;1.83;;
44046;SDS011;29713;-33.888;151.150;2023-07-24T03:07:39;4.70;;;1.58;;
44046;SDS011;29713;-33.888;151.150;2023-07-24T03:10:07;4.53;;;1.42;;
44046;SDS011;29713;-33.888;151.150;2023-07-24T03:12:34;4.40;;;1.40;;
44046;SDS011;29713;-33.888;151.150;2023-07-24T03:15:02;5.93;;;1.70;;
44046;SDS011;29713;-33.888;151.150;2023-07-24T03:17:29;5.65;;;1.80;;
44046;SDS011;29713;-33.888;151.150;2023-07-24T03:19:57;7.05;;;1.65;;
44046;SDS011;29713;-33.888;151.150;2023-07-24T03:22:25;4.10;;;1.40;;
44046;SDS011;29713;-33.888;151.150;2023-07-24T03:24:52;6.47;;;1.55;;
44046;SDS011;29713;-33.888;151.150;2023-07-24T03:27:19;5.00;;;1.27;;
44046;SDS011;29713;-33.888;151.150;2023-07-24T03:29:47;4.28;;;1.63;;
44046;SDS011;29713;-33.888;151.150;2023-07-24T03:32:14;9.85;;;1.65;;
44046;SDS011;29713;-33.888;151.150;2023-07-24T03:34:41;7.40;;;1.77;;
44046;SDS011;29713;-33.888;151.150;2023-07-24T03:37:08;3.95;;;1.60;;
44046;SDS011;29713;-33.888;151.150;2023-07-24T03:39:38;4.88;;;1.77;;
44046;SDS011;29713;-33.888;151.150;2023-07-24T03:42:09;5.45;;;1.70;;
44046;SDS011;29713;-33.888;151.150;2023-07-24T03:44:39;5.80;;;1.65;;
44046;SDS011;29713;-33.888;151.150;2023-07-24T03:47:07;8.75;;;1.77;;
44046;SDS011;29713;-33.888;151.150;2023-07-24T03:49:34;8.70;;;1.60;;
44046;SDS011;29713;-33.888;151.150;2023-07-24T03:52:02;7.55;;;2.00;;
44046;SDS011;29713;-33.888;151.150;2023-07-24T03:54:29;6.30;;;1.75;;
44046;SDS011;29713;-33.888;151.150;2023-07-24T03:56:56;6.03;;;1.52;;
44046;SDS011;29713;-33.888;151.150;2023-07-24T03:59:24;6.93;;;2.00;;
44046;SDS011;29713;-33.888;151.150;2023-07-24T04:01:51;4.85;;;1.60;;
44046;SDS011;29713;-33.888;151.150;2023-07-24T04:04:18;5.90;;;1.70;;
44046;SDS011;29713;-33.888;151.150;2023-07-24T04:06:49;6.43;;;1.52;;
44046;SDS011;29713;-33.888;151.150;2023-07-24T04:09:16;6.00;;;1.70;;
44046;SDS011;29713;-33.888;151.150;2023-07-24T04:11:46;6.80;;;1.70;;
44046;SDS011;29713;-33.888;151.150;2023-07-24T04:14:13;7.63;;;1.77;;
44046;SDS011;29713;-33.888;151.150;2023-07-24T04:16:41;6.00;;;1.65;;
44046;SDS011;29713;-33.888;151.150;2023-07-24T04:19:08;6.15;;;1.55;;
44046;SDS011;29713;-33.888;151.150;2023-07-24T04:21:35;5.65;;;1.40;;
44046;SDS011;29713;-33.888;151.150;2023-07-24T04:24:03;4.00;;;1.42;;
44046;SDS011;29713;-33.888;151.150;2023-07-24T04:26:30;5.35;;;1.55;;
44046;SDS011;29713;-33.888;151.150;2023-07-24T04:28:58;8.63;;;2.00;;
44046;SDS011;29713;-33.888;151.150;2023-07-24T04:31:25;5.70;;;1.70;;
44046;SDS011;29713;-33.888;151.150;2023-07-24T04:33:52;5.15;;;1.48;;
44046;SDS011;29713;-33.888;151.150;2023-07-24T04:36:20;9.25;;;2.13;;
44046;SDS011;29713;-33.888;151.150;2023-07-24T04:38:47;4.97;;;1.60;;
44046;SDS011;29713;-33.888;151.150;2023-07-24T04:41:14;6.07;;;1.80;;
44046;SDS011;29713;-33.888;151.150;2023-07-24T04:43:42;6.40;;;1.63;;
44046;SDS011;29713;-33.888;151.150;2023-07-24T04:46:09;6.45;;;1.63;;
44046;SDS011;29713;-33.888;151.150;2023-07-24T04:48:37;4.95;;;1.60;;
44046;SDS011;29713;-33.888;151.150;2023-07-24T04:51:04;3.67;;;1.50;;
44046;SDS011;29713;-33.888;151.150;2023-07-24T04:53:34;4.55;;;1.60;;
44046;SDS011;29713;-33.888;151.150;2023-07-24T04:56:01;8.50;;;1.70;;
44046;SDS011;29713;-33.888;151.150;2023-07-24T04:58:29;5.68;;;1.55;;
44046;SDS011;29713;-33.888;151.150;2023-07-24T05:01:01;6.43;;;2.03;;
44046;SDS011;29713;-33.888;151.150;2023-07-24T05:03:32;5.43;;;1.90;;
44046;SDS011;29713;-33.888;151.150;2023-07-24T05:05:59;5.20;;;1.90;;
44046;SDS011;29713;-33.888;151.150;2023-07-24T05:08:26;6.32;;;2.08;;
44046;SDS011;29713;-33.888;151.150;2023-07-24T05:10:55;4.07;;;1.40;;
44046;SDS011;29713;-33.888;151.150;2023-07-24T05:13:24;5.05;;;1.45;;
44046;SDS011;29713;-33.888;151.150;2023-07-24T05:15:52;4.40;;;1.48;;
44046;SDS011;29713;-33.888;151.150;2023-07-24T05:18:19;4.95;;;1.55;;
44046;SDS011;29713;-33.888;151.150;2023-07-24T05:20:47;5.68;;;1.92;;
44046;SDS011;29713;-33.888;151.150;2023-07-24T05:23:18;6.25;;;2.03;;
44046;SDS011;29713;-33.888;151.150;2023-07-24T05:25:46;5.65;;;2.20;;
44046;SDS011;29713;-33.888;151.150;2023-07-24T05:28:13;7.35;;;2.13;;
44046;SDS011;29713;-33.888;151.150;2023-07-24T05:30:40;4.57;;;1.70;;
44046;SDS011;29713;-33.888;151.150;2023-07-24T05:33:08;8.02;;;1.90;;
44046;SDS011;29713;-33.888;151.150;2023-07-24T05:35:35;8.32;;;1.90;;
44046;SDS011;29713;-33.888;151.150;2023-07-24T05:38:02;3.53;;;1.85;;
44046;SDS011;29713;-33.888;151.150;2023-07-24T05:40:30;7.55;;;1.90;;
44046;SDS011;29713;-33.888;151.150;2023-07-24T05:42:57;10.43;;;2.00;;
44046;SDS011;29713;-33.888;151.150;2023-07-24T05:45:24;5.60;;;1.50;;
44046;SDS011;29713;-33.888;151.150;2023-07-24T05:47:55;6.57;;;1.88;;
44046;SDS011;29713;-33.888;151.150;2023-07-24T05:50:22;6.22;;;2.08;;
44046;SDS011;29713;-33.888;151.150;2023-07-24T05:52:50;7.03;;;2.20;;
44046;SDS011;29713;-33.888;151.150;2023-07-24T05:55:17;9.05;;;2.00;;
44046;SDS011;29713;-33.888;151.150;2023-07-24T05:57:44;8.52;;;2.00;;
44046;SDS011;29713;-33.888;151.150;2023-07-24T06:00:15;4.45;;;1.77;;
44046;SDS011;29713;-33.888;151.150;2023-07-24T06:02:42;5.70;;;1.70;;
44046;SDS011;29713;-33.888;151.150;2023-07-24T06:05:10;4.90;;;1.50;;
44046;SDS011;29713;-33.888;151.150;2023-07-24T06:07:37;6.60;;;1.70;;
44046;SDS011;29713;-33.888;151.150;2023-07-24T06:10:05;5.28;;;1.80;;
44046;SDS011;29713;-33.888;151.150;2023-07-24T06:12:33;2.33;;;1.30;;
44046;SDS011;29713;-33.888;151.150;2023-07-24T06:15:00;5.15;;;1.55;;
44046;SDS011;29713;-33.888;151.150;2023-07-24T06:17:27;3.72;;;1.63;;
44046;SDS011;29713;-33.888;151.150;2023-07-24T06:19:57;5.75;;;1.73;;
44046;SDS011;29713;-33.888;151.150;2023-07-24T06:22:25;7.03;;;2.30;;
44046;SDS011;29713;-33.888;151.150;2023-07-24T06:24:52;6.25;;;1.83;;
44046;SDS011;29713;-33.888;151.150;2023-07-24T06:27:19;7.72;;;2.13;;
44046;SDS011;29713;-33.888;151.150;2023-07-24T06:29:47;4.80;;;1.63;;
44046;SDS011;29713;-33.888;151.150;2023-07-24T06:32:14;4.82;;;1.83;;
44046;SDS011;29713;-33.888;151.150;2023-07-24T06:34:41;5.03;;;1.83;;
44046;SDS011;29713;-33.888;151.150;2023-07-24T06:37:09;9.98;;;2.17;;
44046;SDS011;29713;-33.888;151.150;2023-07-24T06:39:36;6.47;;;2.10;;
44046;SDS011;29713;-33.888;151.150;2023-07-24T06:42:03;5.68;;;1.73;;
44046;SDS011;29713;-33.888;151.150;2023-07-24T06:44:31;7.03;;;2.03;;
44046;SDS011;29713;-33.888;151.150;2023-07-24T06:46:58;7.00;;;2.00;;
44046;SDS011;29713;-33.888;151.150;2023-07-24T06:49:25;5.97;;;1.80;;
44046;SDS011;29713;-33.888;151.150;2023-07-24T06:51:53;4.80;;;1.80;;
44046;SDS011;29713;-33.888;151.150;2023-07-24T06:54:20;6.07;;;2.20;;
44046;SDS011;29713;-33.888;151.150;2023-07-24T06:56:47;6.38;;;1.83;;
44046;SDS011;29713;-33.888;151.150;2023-07-24T06:59:14;4.82;;;2.28;;
44046;SDS011;29713;-33.888;151.150;2023-07-24T07:01:42;3.47;;;1.65;;
44046;SDS011;29713;-33.888;151.150;2023-07-24T07:04:09;5.90;;;1.90;;
44046;SDS011;29713;-33.888;151.150;2023-07-24T07:06:36;5.77;;;1.80;;
44046;SDS011;29713;-33.888;151.150;2023-07-24T07:09:04;2.93;;;1.63;;
44046;SDS011;29713;-33.888;151.150;2023-07-24T07:11:32;7.70;;;2.07;;
44046;SDS011;29713;-33.888;151.150;2023-07-24T07:13:59;10.20;;;2.10;;
44046;SDS011;29713;-33.888;151.150;2023-07-24T07:16:26;3.60;;;1.63;;
44046;SDS011;29713;-33.888;151.150;2023-07-24T07:18:54;4.87;;;2.00;;
44046;SDS011;29713;-33.888;151.150;2023-07-24T07:21:21;7.23;;;2.20;;
44046;SDS011;29713;-33.888;151.150;2023-07-24T07:23:48;5.30;;;2.43;;
44046;SDS011;29713;-33.888;151.150;2023-07-24T07:26:16;4.97;;;2.03;;
44046;SDS011;29713;-33.888;151.150;2023-07-24T07:28:43;7.60;;;2.20;;
44046;SDS011;29713;-33.888;151.150;2023-07-24T07:31:11;6.03;;;2.13;;
44046;SDS011;29713;-33.888;151.150;2023-07-24T07:33:38;5.07;;;2.50;;
44046;SDS011;29713;-33.888;151.150;2023-07-24T07:36:06;6.00;;;2.60;;
44046;SDS011;29713;-33.888;151.150;2023-07-24T07:38:33;6.67;;;2.63;;
44046;SDS011;29713;-33.888;151.150;2023-07-24T07:41:03;2.80;;;1.97;;
44046;SDS011;29713;-33.888;151.150;2023-07-24T07:43:31;7.67;;;2.53;;
44046;SDS011;29713;-33.888;151.150;2023-07-24T07:46:00;5.70;;;2.67;;
44046;SDS011;29713;-33.888;151.150;2023-07-24T07:48:28;6.80;;;2.63;;
44046;SDS011;29713;-33.888;151.150;2023-07-24T07:50:55;4.53;;;2.70;;
44046;SDS011;29713;-33.888;151.150;2023-07-24T07:53:23;7.60;;;2.60;;
44046;SDS011;29713;-33.888;151.150;2023-07-24T07:55:56;6.57;;;2.40;;
44046;SDS011;29713;-33.888;151.150;2023-07-24T07:58:27;4.87;;;2.80;;
44046;SDS011;29713;-33.888;151.150;2023-07-24T08:00:54;6.77;;;2.80;;
44046;SDS011;29713;-33.888;151.150;2023-07-24T08:03:22;7.03;;;2.80;;
44046;SDS011;29713;-33.888;151.150;2023-07-24T08:05:49;4.53;;;2.43;;
44046;SDS011;29713;-33.888;151.150;2023-07-24T08:08:16;5.60;;;2.53;;
44046;SDS011;29713;-33.888;151.150;2023-07-24T08:10:44;8.00;;;2.40;;
44046;SDS011;29713;-33.888;151.150;2023-07-24T08:13:11;6.67;;;2.40;;
44046;SDS011;29713;-33.888;151.150;2023-07-24T08:15:38;10.07;;;3.00;;
44046;SDS011;29713;-33.888;151.150;2023-07-24T08:18:06;8.53;;;2.80;;
44046;SDS011;29713;-33.888;151.150;2023-07-24T08:20:37;7.23;;;2.87;;
44046;SDS011;29713;-33.888;151.150;2023-07-24T08:23:07;9.07;;;3.50;;
44046;SDS011;29713;-33.888;151.150;2023-07-24T08:25:34;6.83;;;3.20;;
44046;SDS011;29713;-33.888;151.150;2023-07-24T08:28:01;6.57;;;3.07;;
44046;SDS011;29713;-33.888;151.150;2023-07-24T08:30:30;6.97;;;3.83;;
44046;SDS011;29713;-33.888;151.150;2023-07-24T08:33:00;6.87;;;4.00;;
44046;SDS011;29713;-33.888;151.150;2023-07-24T08:35:28;7.93;;;3.93;;
44046;SDS011;29713;-33.888;151.150;2023-07-24T08:37:55;6.23;;;3.90;;
44046;SDS011;29713;-33.888;151.150;2023-07-24T08:40:22;11.40;;;5.40;;
44046;SDS011;29713;-33.888;151.150;2023-07-24T08:42:50;11.07;;;4.97;;
44046;SDS011;29713;-33.888;151.150;2023-07-24T08:45:17;6.87;;;4.30;;
44046;SDS011;29713;-33.888;151.150;2023-07-24T08:47:46;11.43;;;4.40;;
44046;SDS011;29713;-33.888;151.150;2023-07-24T08:50:14;14.63;;;5.23;;
44046;SDS011;29713;-33.888;151.150;2023-07-24T08:52:43;10.60;;;4.80;;
44046;SDS011;29713;-33.888;151.150;2023-07-24T08:55:12;9.80;;;4.97;;
44046;SDS011;29713;-33.888;151.150;2023-07-24T08:57:39;9.33;;;5.10;;
44046;SDS011;29713;-33.888;151.150;2023-07-24T09:00:07;10.00;;;5.10;;
44046;SDS011;29713;-33.888;151.150;2023-07-24T09:02:35;11.53;;;5.53;;
44046;SDS011;29713;-33.888;151.150;2023-07-24T09:05:02;10.77;;;5.50;;
44046;SDS011;29713;-33.888;151.150;2023-07-24T09:07:30;13.60;;;5.50;;
44046;SDS011;29713;-33.888;151.150;2023-07-24T09:09:58;11.53;;;5.63;;
44046;SDS011;29713;-33.888;151.150;2023-07-24T09:12:25;12.30;;;5.73;;
44046;SDS011;29713;-33.888;151.150;2023-07-24T09:15:03;11.17;;;4.77;;
44046;SDS011;29713;-33.888;151.150;2023-07-24T09:17:31;11.63;;;5.30;;
44046;SDS011;29713;-33.888;151.150;2023-07-24T09:19:58;8.30;;;5.00;;
44046;SDS011;29713;-33.888;151.150;2023-07-24T09:22:27;12.93;;;5.30;;
44046;SDS011;29713;-33.888;151.150;2023-07-24T09:24:55;10.83;;;5.27;;
44046;SDS011;29713;-33.888;151.150;2023-07-24T09:27:27;11.50;;;4.60;;
44046;SDS011;29713;-33.888;151.150;2023-07-24T09:29:55;10.90;;;4.77;;
44046;SDS011;29713;-33.888;151.150;2023-07-24T09:32:23;9.97;;;4.30;;
44046;SDS011;29713;-33.888;151.150;2023-07-24T09:34:52;10.17;;;4.53;;
44046;SDS011;29713;-33.888;151.150;2023-07-24T09:37:27;9.30;;;4.37;;
44046;SDS011;29713;-33.888;151.150;2023-07-24T09:39:58;11.43;;;5.00;;
44046;SDS011;29713;-33.888;151.150;2023-07-24T09:42:33;8.57;;;4.47;;
44046;SDS011;29713;-33.888;151.150;2023-07-24T09:45:01;11.97;;;5.43;;
44046;SDS011;29713;-33.888;151.150;2023-07-24T09:47:30;13.60;;;5.37;;
44046;SDS011;29713;-33.888;151.150;2023-07-24T09:49:58;12.50;;;6.10;;
44046;SDS011;29713;-33.888;151.150;2023-07-24T09:52:29;14.70;;;6.83;;
44046;SDS011;29713;-33.888;151.150;2023-07-24T09:57:47;11.53;;;5.70;;
44046;SDS011;29713;-33.888;151.150;2023-07-24T10:00:16;13.57;;;6.40;;
44046;SDS011;29713;-33.888;151.150;2023-07-24T10:02:44;15.63;;;6.43;;
44046;SDS011;29713;-33.888;151.150;2023-07-24T10:05:12;12.70;;;5.97;;
44046;SDS011;29713;-33.888;151.150;2023-07-24T10:07:39;9.17;;;5.67;;
44046;SDS011;29713;-33.888;151.150;2023-07-24T10:10:07;13.80;;;6.27;;
44046;SDS011;29713;-33.888;151.150;2023-07-24T10:12:35;12.70;;;6.77;;
44046;SDS011;29713;-33.888;151.150;2023-07-24T10:15:03;14.23;;;6.23;;
44046;SDS011;29713;-33.888;151.150;2023-07-24T10:17:36;10.17;;;6.30;;
44046;SDS011;29713;-33.888;151.150;2023-07-24T10:20:05;14.30;;;6.60;;
44046;SDS011;29713;-33.888;151.150;2023-07-24T10:22:33;15.03;;;7.30;;
44046;SDS011;29713;-33.888;151.150;2023-07-24T10:25:03;14.53;;;7.00;;
44046;SDS011;29713;-33.888;151.150;2023-07-24T10:27:31;12.70;;;7.47;;
44046;SDS011;29713;-33.888;151.150;2023-07-24T10:30:03;13.20;;;7.43;;
44046;SDS011;29713;-33.888;151.150;2023-07-24T10:32:33;17.20;;;8.30;;
44046;SDS011;29713;-33.888;151.150;2023-07-24T10:35:10;15.83;;;8.07;;
44046;SDS011;29713;-33.888;151.150;2023-07-24T10:37:38;13.70;;;7.47;;
44046;SDS011;29713;-33.888;151.150;2023-07-24T10:40:05;13.50;;;6.93;;
44046;SDS011;29713;-33.888;151.150;2023-07-24T10:42:44;13.30;;;7.30;;
44046;SDS011;29713;-33.888;151.150;2023-07-24T10:45:12;16.53;;;7.37;;
44046;SDS011;29713;-33.888;151.150;2023-07-24T10:47:39;11.97;;;6.63;;
44046;SDS011;29713;-33.888;151.150;2023-07-24T10:50:06;14.43;;;7.37;;
44046;SDS011;29713;-33.888;151.150;2023-07-24T10:52:34;12.63;;;6.80;;
44046;SDS011;29713;-33.888;151.150;2023-07-24T10:55:04;11.50;;;7.33;;
44046;SDS011;29713;-33.888;151.150;2023-07-24T10:57:32;12.97;;;6.93;;
44046;SDS011;29713;-33.888;151.150;2023-07-24T10:59:59;14.70;;;7.83;;
44046;SDS011;29713;-33.888;151.150;2023-07-24T11:02:27;16.50;;;8.83;;
44046;SDS011;29713;-33.888;151.150;2023-07-24T11:04:58;18.23;;;8.90;;
44046;SDS011;29713;-33.888;151.150;2023-07-24T11:07:31;13.50;;;8.37;;
44046;SDS011;29713;-33.888;151.150;2023-07-24T11:09:59;14.60;;;9.10;;
44046;SDS011;29713;-33.888;151.150;2023-07-24T11:12:30;14.47;;;8.83;;
44046;SDS011;29713;-33.888;151.150;2023-07-24T11:14:57;12.20;;;7.67;;
44046;SDS011;29713;-33.888;151.150;2023-07-24T11:17:34;19.93;;;8.10;;
44046;SDS011;29713;-33.888;151.150;2023-07-24T11:20:06;14.87;;;8.43;;
44046;SDS011;29713;-33.888;151.150;2023-07-24T11:22:34;16.33;;;8.30;;
44046;SDS011;29713;-33.888;151.150;2023-07-24T11:25:03;13.87;;;8.17;;
44046;SDS011;29713;-33.888;151.150;2023-07-24T11:27:32;16.33;;;8.60;;
44046;SDS011;29713;-33.888;151.150;2023-07-24T11:30:04;12.97;;;7.40;;
44046;SDS011;29713;-33.888;151.150;2023-07-24T11:32:34;18.80;;;8.33;;
44046;SDS011;29713;-33.888;151.150;2023-07-24T11:35:04;15.80;;;8.23;;
44046;SDS011;29713;-33.888;151.150;2023-07-24T11:37:33;16.67;;;7.77;;
44046;SDS011;29713;-33.888;151.150;2023-07-24T11:40:03;16.10;;;8.03;;
44046;SDS011;29713;-33.888;151.150;2023-07-24T11:42:38;16.80;;;8.07;;
44046;SDS011;29713;-33.888;151.150;2023-07-24T11:45:08;15.20;;;8.20;;
44046;SDS011;29713;-33.888;151.150;2023-07-24T11:47:46;14.73;;;8.00;;
44046;SDS011;29713;-33.888;151.150;2023-07-24T11:50:16;17.67;;;8.10;;
44046;SDS011;29713;-33.888;151.150;2023-07-24T11:52:44;14.47;;;7.23;;
44046;SDS011;29713;-33.888;151.150;2023-07-24T11:55:16;12.20;;;7.20;;
44046;SDS011;29713;-33.888;151.150;2023-07-24T11:57:57;15.43;;;7.77;;
44046;SDS011;29713;-33.888;151.150;2023-07-24T12:00:26;15.00;;;8.20;;
44046;SDS011;29713;-33.888;151.150;2023-07-24T12:02:58;13.07;;;7.43;;
44046;SDS011;29713;-33.888;151.150;2023-07-24T12:05:26;12.83;;;7.33;;
44046;SDS011;29713;-33.888;151.150;2023-07-24T12:07:54;13.17;;;7.47;;
44046;SDS011;29713;-33.888;151.150;2023-07-24T12:10:25;14.07;;;7.10;;
44046;SDS011;29713;-33.888;151.150;2023-07-24T12:12:54;13.20;;;7.87;;
44046;SDS011;29713;-33.888;151.150;2023-07-24T12:15:25;13.07;;;7.73;;
44046;SDS011;29713;-33.888;151.150;2023-07-24T12:17:52;14.30;;;7.20;;
44046;SDS011;29713;-33.888;151.150;2023-07-24T12:20:20;13.40;;;7.70;;
44046;SDS011;29713;-33.888;151.150;2023-07-24T12:22:47;15.03;;;7.73;;
44046;SDS011;29713;-33.888;151.150;2023-07-24T12:25:14;13.70;;;7.17;;
44046;SDS011;29713;-33.888;151.150;2023-07-24T12:27:42;12.07;;;6.57;;
44046;SDS011;29713;-33.888;151.150;2023-07-24T12:30:09;10.93;;;6.57;;
44046;SDS011;29713;-33.888;151.150;2023-07-24T12:32:36;10.00;;;6.43;;
44046;SDS011;29713;-33.888;151.150;2023-07-24T12:35:04;13.20;;;7.33;;
44046;SDS011;29713;-33.888;151.150;2023-07-24T12:37:31;11.87;;;6.97;;
44046;SDS011;29713;-33.888;151.150;2023-07-24T12:39:59;14.27;;;6.70;;
44046;SDS011;29713;-33.888;151.150;2023-07-24T12:42:26;12.23;;;7.60;;
44046;SDS011;29713;-33.888;151.150;2023-07-24T12:44:54;11.03;;;7.33;;
44046;SDS011;29713;-33.888;151.150;2023-07-24T12:47:21;14.63;;;7.40;;
44046;SDS011;29713;-33.888;151.150;2023-07-24T12:49:48;9.40;;;6.93;;
44046;SDS011;29713;-33.888;151.150;2023-07-24T12:52:18;8.93;;;6.23;;
44046;SDS011;29713;-33.888;151.150;2023-07-24T12:54:45;12.13;;;6.97;;
44046;SDS011;29713;-33.888;151.150;2023-07-24T12:57:12;15.40;;;7.93;;
44046;SDS011;29713;-33.888;151.150;2023-07-24T12:59:40;14.33;;;7.63;;
44046;SDS011;29713;-33.888;151.150;2023-07-24T13:02:07;14.67;;;7.50;;
44046;SDS011;29713;-33.888;151.150;2023-07-24T13:04:35;14.30;;;8.37;;
44046;SDS011;29713;-33.888;151.150;2023-07-24T13:07:02;16.63;;;8.00;;
44046;SDS011;29713;-33.888;151.150;2023-07-24T13:09:30;10.53;;;6.63;;
44046;SDS011;29713;-33.888;151.150;2023-07-24T13:11:57;13.40;;;7.70;;
44046;SDS011;29713;-33.888;151.150;2023-07-24T13:14:25;14.17;;;7.17;;
44046;SDS011;29713;-33.888;151.150;2023-07-24T13:16:52;14.77;;;7.93;;
44046;SDS011;29713;-33.888;151.150;2023-07-24T13:19:19;14.17;;;7.73;;
44046;SDS011;29713;-33.888;151.150;2023-07-24T13:21:47;11.20;;;7.53;;
44046;SDS011;29713;-33.888;151.150;2023-07-24T13:24:14;13.30;;;7.57;;
44046;SDS011;29713;-33.888;151.150;2023-07-24T13:26:41;12.47;;;7.53;;
44046;SDS011;29713;-33.888;151.150;2023-07-24T13:29:09;13.97;;;7.80;;
44046;SDS011;29713;-33.888;151.150;2023-07-24T13:31:36;14.00;;;7.83;;
44046;SDS011;29713;-33.888;151.150;2023-07-24T13:34:06;12.83;;;7.50;;
44046;SDS011;29713;-33.888;151.150;2023-07-24T13:36:36;11.73;;;7.17;;
44046;SDS011;29713;-33.888;151.150;2023-07-24T13:39:03;13.37;;;7.87;;
44046;SDS011;29713;-33.888;151.150;2023-07-24T13:41:32;15.90;;;8.10;;
44046;SDS011;29713;-33.888;151.150;2023-07-24T13:43:59;14.53;;;7.30;;
44046;SDS011;29713;-33.888;151.150;2023-07-24T13:46:27;15.60;;;6.87;;
44046;SDS011;29713;-33.888;151.150;2023-07-24T13:48:54;14.77;;;7.83;;
44046;SDS011;29713;-33.888;151.150;2023-07-24T13:51:21;16.03;;;7.73;;
44046;SDS011;29713;-33.888;151.150;2023-07-24T13:53:49;15.57;;;8.13;;
44046;SDS011;29713;-33.888;151.150;2023-07-24T13:56:17;14.80;;;8.07;;
44046;SDS011;29713;-33.888;151.150;2023-07-24T13:58:45;15.37;;;7.67;;
44046;SDS011;29713;-33.888;151.150;2023-07-24T14:01:12;12.83;;;7.37;;
44046;SDS011;29713;-33.888;151.150;2023-07-24T14:03:40;11.37;;;7.00;;
44046;SDS011;29713;-33.888;151.150;2023-07-24T14:06:07;13.43;;;7.50;;
44046;SDS011;29713;-33.888;151.150;2023-07-24T14:08:34;12.10;;;7.60;;
44046;SDS011;29713;-33.888;151.150;2023-07-24T14:11:02;14.17;;;7.93;;
44046;SDS011;29713;-33.888;151.150;2023-07-24T14:13:29;15.80;;;9.00;;
44046;SDS011;29713;-33.888;151.150;2023-07-24T14:15:56;10.07;;;7.00;;